L'Astrolabe — FHZI — position and weather

sailwx.info

Track history (hours):
 
Tides and Currents Weather Stations Pressure Air Temp Water Temp Dewpoint Dewpoint Depression Visibility Wind Speed Wind Dir Waves Ship Positions

Oceanographic research ship L'Astrolabe (France)

Ship's website: http://www.ifremer.fr/ifrtp/pages/astrolabe.html

Detailed information on ship capabilities available from University of Delaware's Ocean Information Center.

Last reported at 2016-Feb-09 21:00 UTC. Time now 2016-Feb-10 02:45 UTC.
Position S 66°42' E 140°00'.

Length 65.5 m; beam 13.1 m; draft 4.7 m.

Type: Other ship. MMSI: 227152000.

Wind from 160 at 8 knots

Barometer 983.2 mb
Air temperature -9.3 ° C
Dewpoint -18.9 ° C
Water temperature -1.5 ° C

Date/timePositionNaut miles runAvg speedWind from/ knotsBaromVisibWave heightAir tempDewpointWater temp
2016-Feb-09 21:00S 66°42' E 140°00'0 0.0 160 / 8983.2 -9.3-18.9-1.5
2016-Feb-09 20:00S 66°42' E 140°00'0 0.0 140 / 9983.5 -9.2-19.0-1.5
2016-Feb-09 17:00S 66°42' E 140°00'0 0.0 140 / 14983.6 -20.1-1.4
2016-Feb-09 12:00S 66°42' E 140°00'0 0.0 130 / 15983.5 -7.7-18.5-1.3
2016-Feb-09 09:00S 66°42' E 140°00'0 0.0 130 / 16982.4 -6.0-16.6-1.2
2016-Feb-09 08:00S 66°42' E 140°00'0 0.0 120 / 15982.0 -5.7-16.0-1.3
2016-Feb-09 05:00S 66°42' E 140°00'15 3.1 130 / 21982.1 -5.7-18.0-1.2
2016-Feb-09 00:00S 66°36' E 140°36'1211.9 150 / 20983.5 -6.8-15.1-1.3
2016-Feb-08 23:00S 66°36' E 141°06'2512.3 160 / 16983.2 -7.5-14.2-1.4
2016-Feb-08 21:00S 66°30' E 142°06'25 6.2 150 / 23982.8 -8.7-15.0-1.1
2016-Feb-08 17:00S 66°36' E 143°06'0 0.0 220 / 10982.2 -3.9-8.2-0.8
2016-Feb-08 15:00S 66°36' E 143°06'0 0.0 120 / 10982.5 -3.2-10.3-0.8
2016-Feb-08 14:00S 66°36' E 143°06'0 0.0 150 / 4982.6 -3.9-8.3-0.8
2016-Feb-08 12:00S 66°36' E 143°06'20 6.7 190 / 7982.7 -3.0-8.5-0.7
2016-Feb-08 09:00S 66°30' E 142°18'3110.3 160 / 18983.1 -5.2-10.7-1.2
2016-Feb-08 06:00S 66°42' E 141°06'9 9.3 150 / 15984.2 -3.1-13.1-1.2
2016-Feb-08 05:00S 66°48' E 141°24'15 5.1 140 / 27983.3 -4.2-12.8-1.3
2016-Feb-08 02:00S 66°42' E 140°48'2010.0 150 / 24983.2 -5.2-13.4-1.3
2016-Feb-08 00:00S 66°36' E 140°00'6 2.0 130 / 18984.7 -5.8-13.9-0.6
2016-Feb-07 21:00S 66°42' E 140°00'0 0.0 130 / 24985.3 -8.5-18.2-1.2
2016-Feb-07 20:00S 66°42' E 140°00'0 0.0 140 / 24985.5 -8.8-17.7-1.1
2016-Feb-07 18:00S 66°42' E 140°00'0 0.0 140 / 24985.7 -8.5-17.5-1.1
2016-Feb-07 15:00S 66°42' E 140°00'0 0.0 130 / 18986.4 -7.3-15.6-1.2
2016-Feb-07 14:00S 66°42' E 140°00'0 0.0 130 / 22986.4 -7.2-16.1-1.2
2016-Feb-07 12:00S 66°42' E 140°00'0 0.0 130 / 16986.9 -6.9-15.5-1.3
2016-Feb-07 11:00S 66°42' E 140°00'0 0.0 130 / 17987.0 -6.7-15.9-1.3
2016-Feb-07 09:00S 66°42' E 140°00'0 0.0 130 / 20986.7 -6.1-16.3-1.3
2016-Feb-07 03:00S 66°42' E 140°00'0 0.0 140 / 11986.2 -5.2-14.8-1.1
2016-Feb-07 02:00S 66°42' E 140°00'0 0.0 120 / 12986.3 -5.8-16.3-1.2
2016-Feb-07 00:00S 66°42' E 140°00'0 0.0 140 / 11985.3 -6.3-17.1-1.2
2016-Feb-06 23:00S 66°42' E 140°00'0 0.0 140 / 10985.5 -6.9-16.8-1.2
2016-Feb-06 21:00S 66°42' E 140°00'0 0.0 170 / 5985.1 -7.8-18.7-1.1
2016-Feb-06 20:00S 66°42' E 140°00'0 0.0 140 / 3984.3 -7.9-16.3-1.1
2016-Feb-06 18:00S 66°42' E 140°00'0 0.0 180 / 8983.7 -8.3-17.7-1.0
2016-Feb-06 17:00S 66°42' E 140°00'0 0.0 170 / 9983.5 -6.6-18.7-1.0
2016-Feb-06 15:00S 66°42' E 140°00'0 0.0 120 / 4982.9 -7.0-16.1-1.2
2016-Feb-06 12:00S 66°42' E 140°00'0 0.0 180 / 5982.2 -4.5-9.5-1.3
2016-Feb-06 09:00S 66°42' E 140°00'0 0.0 280 / 10981.3 -0.1-6.8-1.2
2016-Feb-06 08:00S 66°42' E 140°00'0 0.0 280 / 8981.1 0.7-8.8-1.2
2016-Feb-06 06:00S 66°42' E 140°00'0 0.0 290 / 8981.6 0.4-9.3-1.2
2016-Feb-06 03:00S 66°42' E 140°00'0 0.0 030 / 4982.6 -0.7-12.3-1.1
2016-Feb-06 02:00S 66°42' E 140°00'0 0.0 080 / 7982.9 -1.3-12.6-1.1
2016-Feb-06 00:00S 66°42' E 140°00'0 0.0 130 / 8983.7 -1.9-13.1-1.0
2016-Feb-05 23:00S 66°42' E 140°00'6 3.0 120 / 11984.0 -2.1-14.3-1.0
2016-Feb-05 21:00S 66°36' E 140°00'0 0.0 110 / 14984.3 -2.8-12.1-1.1
2016-Feb-05 20:00S 66°36' E 140°00'0 0.0 110 / 11984.6 -2.8-12.0-1.0
2016-Feb-05 18:00S 66°36' E 140°00'2 2.4 110 / 10985.3 -2.7-9.8-1.0
2016-Feb-05 17:00S 66°36' E 140°06'13 4.3 120 / 11985.3 -2.9-11.2-1.1
2016-Feb-05 14:00S 66°24' E 140°18'44 8.7 260 / 8986.4 -3.7-5.6-1.4
2016-Feb-05 09:00S 66°00' E 141°48'1111.5 280 / 6988.6 -2.0-5.3-1.4
2016-Feb-05 08:00S 65°54' E 142°12'28 9.4 250 / 10988.7 -1.7-5.3-1.0
2016-Feb-05 05:00S 65°30' E 142°48'18 9.1 260 / 9988.8 -2.1-6.8-1.3
2016-Feb-05 03:00S 65°12' E 142°54'4812.0 230 / 9988.8 -2.0-6.3 0.1
2016-Feb-04 23:00S 64°24' E 143°00'2412.1 210 / 6988.4 -1.0-4.8 0.3
2016-Feb-04 21:00S 64°00' E 143°06'1313.1 190 / 8987.3 -0.6-4.6 1.1
2016-Feb-04 20:00S 63°48' E 143°18'3310.9 180 / 6985.8 -0.5-4.2 0.8
2016-Feb-04 17:00S 63°18' E 143°48'2613.2 190 / 7983.7 -0.4-3.8 0.9
2016-Feb-04 15:00S 62°54' E 144°12'8 8.1 190 / 12981.8 -0.1-3.6 1.1
2016-Feb-04 14:00S 62°48' E 144°24'2613.2 200 / 13981.7 -0.1-3.3 1.6
2016-Feb-04 12:00S 62°24' E 144°48'1212.3 210 / 10982.0 0.2-2.8 1.6
2016-Feb-04 11:00S 62°12' E 144°54'6611.1 200 / 10981.6 0.3-2.8 1.5
2016-Feb-04 05:00S 61°12' E 145°54'3210.7 190 / 26976.6 1.4 0.3 2.0
2016-Feb-04 02:00S 60°42' E 146°18'6611.0 190 / 31970.3 1.7 2.5
2016-Feb-03 20:00S 59°42' E 147°12'3612.0 210 / 11957.9 2.1 2.4
2016-Feb-03 17:00S 59°06' E 147°06'3010.1 280 / 27957.5 1.9 2.6
2016-Feb-03 14:00S 58°36' E 147°00'3612.0 280 / 31960.9 2.3 2.7
2016-Feb-03 11:00S 58°00' E 146°54'2412.0 280 / 25963.7 3.6 3.0
2016-Feb-03 09:00S 57°36' E 146°54'12012.0 280 / 20964.7 3.5 2.8
2016-Feb-02 23:00S 55°36' E 146°42'6012.0 360 / 23972.4 6.3 3.6
2016-Feb-02 18:00S 54°36' E 146°36'1212.5 360 / 24978.4 7.7 4.8
2016-Feb-02 17:00S 54°24' E 146°30'2412.0 360 / 23979.7 7.4 4.5
2016-Feb-02 15:00S 54°00' E 146°30'3612.1 360 / 20983.0 6.9 4.7
2016-Feb-02 12:00S 53°24' E 146°24'1312.5 010 / 21988.9 8.1 6.3
2016-Feb-02 11:00S 53°12' E 146°18'2412.0 360 / 19991.2 9.1 6.7
2016-Feb-02 09:00S 52°48' E 146°18'5413.5 360 / 19992.7 9.3 7.1
2016-Feb-02 05:00S 51°54' E 146°18'11412.7 360 / 20997.3 10.9 8.1
2016-Feb-01 20:00S 50°00' E 146°12'10812.0 040 / 171006.0 11.8 11.2
2016-Feb-01 11:00S 48°12' E 146°12'2412.2 070 / 181010.1 13.3 13.9
2016-Feb-01 09:00S 47°48' E 146°18'1312.7 080 / 181009.8 13.7 14.5
2016-Feb-01 08:00S 47°36' E 146°24'2412.2 080 / 201008.7 13.5 14.4
2016-Feb-01 06:00S 47°12' E 146°30'4214.1 080 / 211008.8 13.8 14.7
2016-Feb-01 03:00S 46°30' E 146°36'6711.2 070 / 111009.0 13.8 14.3
2016-Jan-31 21:00S 45°24' E 146°54'1312.7 080 / 181007.9 16.4 18.0
2016-Jan-31 20:00S 45°12' E 147°00'2412.2 070 / 141008.0 16.4 17.3
2016-Jan-31 18:00S 44°48' E 147°06'1212.0 080 / 171007.2 16.9 17.9
2016-Jan-31 17:00S 44°36' E 147°06'4511.9 080 / 141005.5 16.9 17.9
2016-Jan-31 13:13S 43°52' E 147°19'811.5
2016-Jan-31 12:33S 43°45' E 147°21'3 6.1
2016-Jan-31 12:00S 43°42' E 147°24'819.2 080 / 151007.7 18.9 18.6
2016-Jan-31 11:33S 43°34' E 147°24'4 6.4
2016-Jan-31 11:00S 43°30' E 147°24'819.1 070 / 121007.5 18.8 18.6
2016-Jan-31 10:33S 43°22' E 147°26'1211.8
2016-Jan-31 09:33S 43°10' E 147°27'5 8.5
2016-Jan-31 09:00S 43°06' E 147°24'716.4 140 / 121006.5 18.8 19.1
2016-Jan-31 08:33S 42°59' E 147°22'5 9.1
2016-Jan-31 08:00S 42°54' E 147°24'3 5.9 130 / 91006.5 18.918.918.9
2016-Jan-31 07:31S 42°53' E 147°20'0 0.0
2016-Jan-31 06:31S 42°53' E 147°20'0 0.0
2016-Jan-31 05:31S 42°53' E 147°20'2 4.1
2016-Jan-31 05:00S 42°54' E 147°18'2 4.4 120 / 91007.1 19.118.617.9
2016-Jan-31 04:31S 42°53' E 147°20'0 0.0
2016-Jan-31 03:31S 42°53' E 147°20'2 4.1
2016-Jan-31 03:00S 42°54' E 147°18'2 4.4 120 / 181007.3 18.917.017.9
2016-Jan-31 02:31S 42°53' E 147°20'0 0.0
2016-Jan-31 01:31S 42°53' E 147°20'0 0.0
2016-Jan-31 00:31S 42°53' E 147°20'2 4.1
2016-Jan-31 00:00S 42°54' E 147°18'2 4.9 240 / 51010.7 18.016.317.9
2016-Jan-30 23:34S 42°53' E 147°20'2 3.8
2016-Jan-30 23:00S 42°54' E 147°18'2 4.9 100 / 111011.2 17.915.017.8
2016-Jan-30 22:33S 42°53' E 147°20'0 0.0
2016-Jan-30 21:34S 42°53' E 147°20'  
Track history (hours):
 
Tides and Currents Weather Stations Pressure Air Temp Water Temp Dewpoint Dewpoint Depression Visibility Wind Speed Wind Dir Waves Ship Positions

Oceanographic research ship L'Astrolabe (France)

Ship's website: http://www.ifremer.fr/ifrtp/pages/astrolabe.html

Detailed information on ship capabilities available from University of Delaware's Ocean Information Center.

Last reported at 2016-Feb-09 21:00 UTC. Time now 2016-Feb-10 02:45 UTC.
Position S 66°42' E 140°00'.

Length 65.5 m; beam 13.1 m; draft 4.7 m.

Type: Other ship. MMSI: 227152000.

Wind from 160 at 8 knots

Barometer 983.2 mb
Air temperature -9.3 ° C
Dewpoint -18.9 ° C
Water temperature -1.5 ° C

Date/timePositionNaut miles runAvg speedWind from/ knotsBaromVisibWave heightAir tempDewpointWater temp
2016-Feb-09 21:00S 66°42' E 140°00'0 0.0 160 / 8983.2 -9.3-18.9-1.5
2016-Feb-09 20:00S 66°42' E 140°00'0 0.0 140 / 9983.5 -9.2-19.0-1.5
2016-Feb-09 17:00S 66°42' E 140°00'0 0.0 140 / 14983.6 -20.1-1.4
2016-Feb-09 12:00S 66°42' E 140°00'0 0.0 130 / 15983.5 -7.7-18.5-1.3
2016-Feb-09 09:00S 66°42' E 140°00'0 0.0 130 / 16982.4 -6.0-16.6-1.2
2016-Feb-09 08:00S 66°42' E 140°00'0 0.0 120 / 15982.0 -5.7-16.0-1.3
2016-Feb-09 05:00S 66°42' E 140°00'15 3.1 130 / 21982.1 -5.7-18.0-1.2
2016-Feb-09 00:00S 66°36' E 140°36'1211.9 150 / 20983.5 -6.8-15.1-1.3
2016-Feb-08 23:00S 66°36' E 141°06'2512.3 160 / 16983.2 -7.5-14.2-1.4
2016-Feb-08 21:00S 66°30' E 142°06'25 6.2 150 / 23982.8 -8.7-15.0-1.1
2016-Feb-08 17:00S 66°36' E 143°06'0 0.0 220 / 10982.2 -3.9-8.2-0.8
2016-Feb-08 15:00S 66°36' E 143°06'0 0.0 120 / 10982.5 -3.2-10.3-0.8
2016-Feb-08 14:00S 66°36' E 143°06'0 0.0 150 / 4982.6 -3.9-8.3-0.8
2016-Feb-08 12:00S 66°36' E 143°06'20 6.7 190 / 7982.7 -3.0-8.5-0.7
2016-Feb-08 09:00S 66°30' E 142°18'3110.3 160 / 18983.1 -5.2-10.7-1.2
2016-Feb-08 06:00S 66°42' E 141°06'9 9.3 150 / 15984.2 -3.1-13.1-1.2
2016-Feb-08 05:00S 66°48' E 141°24'15 5.1 140 / 27983.3 -4.2-12.8-1.3
2016-Feb-08 02:00S 66°42' E 140°48'2010.0 150 / 24983.2 -5.2-13.4-1.3
2016-Feb-08 00:00S 66°36' E 140°00'6 2.0 130 / 18984.7 -5.8-13.9-0.6
2016-Feb-07 21:00S 66°42' E 140°00'0 0.0 130 / 24985.3 -8.5-18.2-1.2
2016-Feb-07 20:00S 66°42' E 140°00'0 0.0 140 / 24985.5 -8.8-17.7-1.1
2016-Feb-07 18:00S 66°42' E 140°00'0 0.0 140 / 24985.7 -8.5-17.5-1.1
2016-Feb-07 15:00S 66°42' E 140°00'0 0.0 130 / 18986.4 -7.3-15.6-1.2
2016-Feb-07 14:00S 66°42' E 140°00'0 0.0 130 / 22986.4 -7.2-16.1-1.2
2016-Feb-07 12:00S 66°42' E 140°00'0 0.0 130 / 16986.9 -6.9-15.5-1.3
2016-Feb-07 11:00S 66°42' E 140°00'0 0.0 130 / 17987.0 -6.7-15.9-1.3
2016-Feb-07 09:00S 66°42' E 140°00'0 0.0 130 / 20986.7 -6.1-16.3-1.3
2016-Feb-07 03:00S 66°42' E 140°00'0 0.0 140 / 11986.2 -5.2-14.8-1.1
2016-Feb-07 02:00S 66°42' E 140°00'0 0.0 120 / 12986.3 -5.8-16.3-1.2
2016-Feb-07 00:00S 66°42' E 140°00'0 0.0 140 / 11985.3 -6.3-17.1-1.2
2016-Feb-06 23:00S 66°42' E 140°00'0 0.0 140 / 10985.5 -6.9-16.8-1.2
2016-Feb-06 21:00S 66°42' E 140°00'0 0.0 170 / 5985.1 -7.8-18.7-1.1
2016-Feb-06 20:00S 66°42' E 140°00'0 0.0 140 / 3984.3 -7.9-16.3-1.1
2016-Feb-06 18:00S 66°42' E 140°00'0 0.0 180 / 8983.7 -8.3-17.7-1.0
2016-Feb-06 17:00S 66°42' E 140°00'0 0.0 170 / 9983.5 -6.6-18.7-1.0
2016-Feb-06 15:00S 66°42' E 140°00'0 0.0 120 / 4982.9 -7.0-16.1-1.2
2016-Feb-06 12:00S 66°42' E 140°00'0 0.0 180 / 5982.2 -4.5-9.5-1.3
2016-Feb-06 09:00S 66°42' E 140°00'0 0.0 280 / 10981.3 -0.1-6.8-1.2
2016-Feb-06 08:00S 66°42' E 140°00'0 0.0 280 / 8981.1 0.7-8.8-1.2
2016-Feb-06 06:00S 66°42' E 140°00'0 0.0 290 / 8981.6 0.4-9.3-1.2
2016-Feb-06 03:00S 66°42' E 140°00'0 0.0 030 / 4982.6 -0.7-12.3-1.1
2016-Feb-06 02:00S 66°42' E 140°00'0 0.0 080 / 7982.9 -1.3-12.6-1.1
2016-Feb-06 00:00S 66°42' E 140°00'0 0.0 130 / 8983.7 -1.9-13.1-1.0
2016-Feb-05 23:00S 66°42' E 140°00'6 3.0 120 / 11984.0 -2.1-14.3-1.0
2016-Feb-05 21:00S 66°36' E 140°00'0 0.0 110 / 14984.3 -2.8-12.1-1.1
2016-Feb-05 20:00S 66°36' E 140°00'0 0.0 110 / 11984.6 -2.8-12.0-1.0
2016-Feb-05 18:00S 66°36' E 140°00'2 2.4 110 / 10985.3 -2.7-9.8-1.0
2016-Feb-05 17:00S 66°36' E 140°06'13 4.3 120 / 11985.3 -2.9-11.2-1.1
2016-Feb-05 14:00S 66°24' E 140°18'44 8.7 260 / 8986.4 -3.7-5.6-1.4
2016-Feb-05 09:00S 66°00' E 141°48'1111.5 280 / 6988.6 -2.0-5.3-1.4
2016-Feb-05 08:00S 65°54' E 142°12'28 9.4 250 / 10988.7 -1.7-5.3-1.0
2016-Feb-05 05:00S 65°30' E 142°48'18 9.1 260 / 9988.8 -2.1-6.8-1.3
2016-Feb-05 03:00S 65°12' E 142°54'4812.0 230 / 9988.8 -2.0-6.3 0.1
2016-Feb-04 23:00S 64°24' E 143°00'2412.1 210 / 6988.4 -1.0-4.8 0.3
2016-Feb-04 21:00S 64°00' E 143°06'1313.1 190 / 8987.3 -0.6-4.6 1.1
2016-Feb-04 20:00S 63°48' E 143°18'3310.9 180 / 6985.8 -0.5-4.2 0.8
2016-Feb-04 17:00S 63°18' E 143°48'2613.2 190 / 7983.7 -0.4-3.8 0.9
2016-Feb-04 15:00S 62°54' E 144°12'8 8.1 190 / 12981.8 -0.1-3.6 1.1
2016-Feb-04 14:00S 62°48' E 144°24'2613.2 200 / 13981.7 -0.1-3.3 1.6
2016-Feb-04 12:00S 62°24' E 144°48'1212.3 210 / 10982.0 0.2-2.8 1.6
2016-Feb-04 11:00S 62°12' E 144°54'6611.1 200 / 10981.6 0.3-2.8 1.5
2016-Feb-04 05:00S 61°12' E 145°54'3210.7 190 / 26976.6 1.4 0.3 2.0
2016-Feb-04 02:00S 60°42' E 146°18'6611.0 190 / 31970.3 1.7 2.5
2016-Feb-03 20:00S 59°42' E 147°12'3612.0 210 / 11957.9 2.1 2.4
2016-Feb-03 17:00S 59°06' E 147°06'3010.1 280 / 27957.5 1.9 2.6
2016-Feb-03 14:00S 58°36' E 147°00'3612.0 280 / 31960.9 2.3 2.7
2016-Feb-03 11:00S 58°00' E 146°54'2412.0 280 / 25963.7 3.6 3.0
2016-Feb-03 09:00S 57°36' E 146°54'12012.0 280 / 20964.7 3.5 2.8
2016-Feb-02 23:00S 55°36' E 146°42'6012.0 360 / 23972.4 6.3 3.6
2016-Feb-02 18:00S 54°36' E 146°36'1212.5 360 / 24978.4 7.7 4.8
2016-Feb-02 17:00S 54°24' E 146°30'2412.0 360 / 23979.7 7.4 4.5
2016-Feb-02 15:00S 54°00' E 146°30'3612.1 360 / 20983.0 6.9 4.7
2016-Feb-02 12:00S 53°24' E 146°24'1312.5 010 / 21988.9 8.1 6.3
2016-Feb-02 11:00S 53°12' E 146°18'2412.0 360 / 19991.2 9.1 6.7
2016-Feb-02 09:00S 52°48' E 146°18'5413.5 360 / 19992.7 9.3 7.1
2016-Feb-02 05:00S 51°54' E 146°18'11412.7 360 / 20997.3 10.9 8.1
2016-Feb-01 20:00S 50°00' E 146°12'10812.0 040 / 171006.0 11.8 11.2
2016-Feb-01 11:00S 48°12' E 146°12'2412.2 070 / 181010.1 13.3 13.9
2016-Feb-01 09:00S 47°48' E 146°18'1312.7 080 / 181009.8 13.7 14.5
2016-Feb-01 08:00S 47°36' E 146°24'2412.2 080 / 201008.7 13.5 14.4
2016-Feb-01 06:00S 47°12' E 146°30'4214.1 080 / 211008.8 13.8 14.7
2016-Feb-01 03:00S 46°30' E 146°36'6711.2 070 / 111009.0 13.8 14.3
2016-Jan-31 21:00S 45°24' E 146°54'1312.7 080 / 181007.9 16.4 18.0
2016-Jan-31 20:00S 45°12' E 147°00'2412.2 070 / 141008.0 16.4 17.3
2016-Jan-31 18:00S 44°48' E 147°06'1212.0 080 / 171007.2 16.9 17.9
2016-Jan-31 17:00S 44°36' E 147°06'4511.9 080 / 141005.5 16.9 17.9
2016-Jan-31 13:13S 43°52' E 147°19'811.5
2016-Jan-31 12:33S 43°45' E 147°21'3 6.1
2016-Jan-31 12:00S 43°42' E 147°24'819.2 080 / 151007.7 18.9 18.6
2016-Jan-31 11:33S 43°34' E 147°24'4 6.4
2016-Jan-31 11:00S 43°30' E 147°24'819.1 070 / 121007.5 18.8 18.6
2016-Jan-31 10:33S 43°22' E 147°26'1211.8
2016-Jan-31 09:33S 43°10' E 147°27'5 8.5
2016-Jan-31 09:00S 43°06' E 147°24'716.4 140 / 121006.5 18.8 19.1
2016-Jan-31 08:33S 42°59' E 147°22'5 9.1
2016-Jan-31 08:00S 42°54' E 147°24'3 5.9 130 / 91006.5 18.918.918.9
2016-Jan-31 07:31S 42°53' E 147°20'0 0.0
2016-Jan-31 06:31S 42°53' E 147°20'0 0.0
2016-Jan-31 05:31S 42°53' E 147°20'2 4.1
2016-Jan-31 05:00S 42°54' E 147°18'2 4.4 120 / 91007.1 19.118.617.9
2016-Jan-31 04:31S 42°53' E 147°20'0 0.0
2016-Jan-31 03:31S 42°53' E 147°20'2 4.1
2016-Jan-31 03:00S 42°54' E 147°18'2 4.4 120 / 181007.3 18.917.017.9
2016-Jan-31 02:31S 42°53' E 147°20'0 0.0
2016-Jan-31 01:31S 42°53' E 147°20'0 0.0
2016-Jan-31 00:31S 42°53' E 147°20'2 4.1
2016-Jan-31 00:00S 42°54' E 147°18'2 4.9 240 / 51010.7 18.016.317.9
2016-Jan-30 23:34S 42°53' E 147°20'2 3.8
2016-Jan-30 23:00S 42°54' E 147°18'2 4.9 100 / 111011.2 17.915.017.8
2016-Jan-30 22:33S 42°53' E 147°20'0 0.0
2016-Jan-30 21:34S 42°53' E 147°20'  

Dump ship's entire track history